sensor_id;sensor_type;location;lat;lon;timestamp;pressure;altitude;pressure_sealevel;temperature;humidity
46023;BME280;31756;47.936;16.224;2023-03-18T00:00:43;98472.38;;;6.45;nan
46023;BME280;31756;47.936;16.224;2023-03-18T00:03:09;98478.53;;;5.91;nan
46023;BME280;31756;47.936;16.224;2023-03-18T00:05:35;98478.56;;;5.61;nan
46023;BME280;31756;47.936;16.224;2023-03-18T00:08:02;98476.06;;;5.38;nan
46023;BME280;31756;47.936;16.224;2023-03-18T00:10:29;98467.59;;;5.22;nan
46023;BME280;31756;47.936;16.224;2023-03-18T00:12:55;98464.22;;;5.11;nan
46023;BME280;31756;47.936;16.224;2023-03-18T00:15:21;98473.53;;;4.98;nan
46023;BME280;31756;47.936;16.224;2023-03-18T00:17:47;98476.94;;;4.99;nan
46023;BME280;31756;47.936;16.224;2023-03-18T00:20:14;98466.75;;;4.81;nan
46023;BME280;31756;47.936;16.224;2023-03-18T00:22:41;98481.13;;;4.73;nan
46023;BME280;31756;47.936;16.224;2023-03-18T00:25:09;98482.81;;;4.62;nan
46023;BME280;31756;47.936;16.224;2023-03-18T00:27:37;98442.13;;;4.33;nan
46023;BME280;31756;47.936;16.224;2023-03-18T00:30:03;98456.53;;;4.37;nan
46023;BME280;31756;47.936;16.224;2023-03-18T00:32:30;98475.16;;;4.55;nan
46023;BME280;31756;47.936;16.224;2023-03-18T00:34:56;98475.19;;;4.57;nan
46023;BME280;31756;47.936;16.224;2023-03-18T00:37:23;98472.63;;;4.51;nan
46023;BME280;31756;47.936;16.224;2023-03-18T00:39:58;98469.25;;;4.56;nan
46023;BME280;31756;47.936;16.224;2023-03-18T00:42:29;98470.06;;;4.51;nan
46023;BME280;31756;47.936;16.224;2023-03-18T00:45:02;98469.22;;;4.50;nan
46023;BME280;31756;47.936;16.224;2023-03-18T00:47:29;98470.88;;;4.38;nan
46023;BME280;31756;47.936;16.224;2023-03-18T00:49:55;98458.16;;;4.23;nan
46023;BME280;31756;47.936;16.224;2023-03-18T00:52:21;98459.91;;;4.33;nan
46023;BME280;31756;47.936;16.224;2023-03-18T00:54:47;98457.31;;;4.24;nan
46023;BME280;31756;47.936;16.224;2023-03-18T00:57:12;98465.78;;;4.24;nan
46023;BME280;31756;47.936;16.224;2023-03-18T00:59:39;98470.00;;;4.19;nan
46023;BME280;31756;47.936;16.224;2023-03-18T01:02:05;98459.00;;;4.19;nan
46023;BME280;31756;47.936;16.224;2023-03-18T01:04:31;98469.16;;;4.29;nan
46023;BME280;31756;47.936;16.224;2023-03-18T01:06:57;98446.28;;;4.09;nan
46023;BME280;31756;47.936;16.224;2023-03-18T01:09:22;98462.34;;;4.07;nan
46023;BME280;31756;47.936;16.224;2023-03-18T01:11:48;98469.91;;;4.04;nan
46023;BME280;31756;47.936;16.224;2023-03-18T01:14:14;98464.00;;;4.00;nan
46023;BME280;31756;47.936;16.224;2023-03-18T01:16:39;98464.81;;;3.96;nan
46023;BME280;31756;47.936;16.224;2023-03-18T01:19:05;98465.66;;;3.94;nan
46023;BME280;31756;47.936;16.224;2023-03-18T01:21:31;98442.72;;;3.71;nan
46023;BME280;31756;47.936;16.224;2023-03-18T01:23:59;98455.47;;;3.91;nan
46023;BME280;31756;47.936;16.224;2023-03-18T01:26:26;98460.59;;;3.97;nan
46023;BME280;31756;47.936;16.224;2023-03-18T01:28:53;98452.09;;;3.81;nan
46023;BME280;31756;47.936;16.224;2023-03-18T01:31:19;98450.34;;;3.74;nan
46023;BME280;31756;47.936;16.224;2023-03-18T01:33:46;98427.50;;;3.63;nan
46023;BME280;31756;47.936;16.224;2023-03-18T01:36:12;98447.78;;;3.69;nan
46023;BME280;31756;47.936;16.224;2023-03-18T01:38:38;98443.56;;;3.70;nan
46023;BME280;31756;47.936;16.224;2023-03-18T01:41:10;98446.97;;;3.75;nan
46023;BME280;31756;47.936;16.224;2023-03-18T01:43:39;98452.81;;;3.60;nan
46023;BME280;31756;47.936;16.224;2023-03-18T01:48:59;98455.28;;;3.53;nan
46023;BME280;31756;47.936;16.224;2023-03-18T01:51:27;98443.50;;;3.55;nan
46023;BME280;31756;47.936;16.224;2023-03-18T01:53:55;98440.88;;;3.44;nan
46023;BME280;31756;47.936;16.224;2023-03-18T01:56:22;98445.91;;;3.37;nan
46023;BME280;31756;47.936;16.224;2023-03-18T01:58:53;98442.56;;;3.39;nan
46023;BME280;31756;47.936;16.224;2023-03-18T02:04:20;98449.38;;;3.48;nan
46023;BME280;31756;47.936;16.224;2023-03-18T02:06:47;98451.91;;;3.48;nan
46023;BME280;31756;47.936;16.224;2023-03-18T02:09:13;98417.16;;;3.33;nan
46023;BME280;31756;47.936;16.224;2023-03-18T02:11:45;98462.03;;;3.46;nan
46023;BME280;31756;47.936;16.224;2023-03-18T02:14:18;98470.50;;;3.53;nan
46023;BME280;31756;47.936;16.224;2023-03-18T02:16:49;98449.31;;;3.39;nan
46023;BME280;31756;47.936;16.224;2023-03-18T02:22:21;98468.78;;;3.49;nan
46023;BME280;31756;47.936;16.224;2023-03-18T02:27:26;98480.59;;;3.48;nan
46023;BME280;31756;47.936;16.224;2023-03-18T02:29:58;98473.78;;;3.38;nan
46023;BME280;31756;47.936;16.224;2023-03-18T02:32:29;98474.75;;;3.57;nan
46023;BME280;31756;47.936;16.224;2023-03-18T02:34:58;98457.81;;;3.50;nan
46023;BME280;31756;47.936;16.224;2023-03-18T02:37:26;98452.69;;;3.41;nan
46023;BME280;31756;47.936;16.224;2023-03-18T02:39:52;98470.56;;;3.62;nan
46023;BME280;31756;47.936;16.224;2023-03-18T02:42:31;98455.31;;;3.54;nan
46023;BME280;31756;47.936;16.224;2023-03-18T02:44:58;98468.84;;;3.61;nan
46023;BME280;31756;47.936;16.224;2023-03-18T02:47:39;98461.25;;;3.56;nan
46023;BME280;31756;47.936;16.224;2023-03-18T02:50:08;98448.50;;;3.49;nan
46023;BME280;31756;47.936;16.224;2023-03-18T02:52:34;98461.19;;;3.47;nan
46023;BME280;31756;47.936;16.224;2023-03-18T02:55:00;98446.81;;;3.46;nan
46023;BME280;31756;47.936;16.224;2023-03-18T02:57:27;98477.34;;;3.64;nan
46023;BME280;31756;47.936;16.224;2023-03-18T02:59:54;98458.69;;;3.53;nan
46023;BME280;31756;47.936;16.224;2023-03-18T03:02:19;98482.38;;;3.60;nan
46023;BME280;31756;47.936;16.224;2023-03-18T03:04:45;98461.13;;;3.41;nan
46023;BME280;31756;47.936;16.224;2023-03-18T03:07:13;98470.47;;;3.45;nan
46023;BME280;31756;47.936;16.224;2023-03-18T03:09:46;98467.13;;;3.48;nan
46023;BME280;31756;47.936;16.224;2023-03-18T03:12:13;98478.09;;;3.50;nan
46023;BME280;31756;47.936;16.224;2023-03-18T03:14:43;98468.72;;;3.37;nan
46023;BME280;31756;47.936;16.224;2023-03-18T03:17:11;98509.41;;;3.56;nan
46023;BME280;31756;47.936;16.224;2023-03-18T03:19:36;98476.31;;;3.37;nan
46023;BME280;31756;47.936;16.224;2023-03-18T03:22:02;98516.94;;;3.47;nan
46023;BME280;31756;47.936;16.224;2023-03-18T03:24:28;98524.53;;;3.47;nan
46023;BME280;31756;47.936;16.224;2023-03-18T03:26:54;98506.72;;;3.38;nan
46023;BME280;31756;47.936;16.224;2023-03-18T03:29:20;98530.44;;;3.43;nan
46023;BME280;31756;47.936;16.224;2023-03-18T03:31:48;98532.91;;;3.37;nan
46023;BME280;31756;47.936;16.224;2023-03-18T03:34:14;98533.69;;;3.32;nan
46023;BME280;31756;47.936;16.224;2023-03-18T03:36:41;98548.03;;;3.31;nan
46023;BME280;31756;47.936;16.224;2023-03-18T03:39:07;98550.66;;;3.40;nan
46023;BME280;31756;47.936;16.224;2023-03-18T03:41:33;98539.47;;;3.14;nan
46023;BME280;31756;47.936;16.224;2023-03-18T03:44:00;98563.97;;;3.16;nan
46023;BME280;31756;47.936;16.224;2023-03-18T03:46:26;98556.22;;;3.00;nan
46023;BME280;31756;47.936;16.224;2023-03-18T03:48:52;98571.44;;;3.06;nan
46023;BME280;31756;47.936;16.224;2023-03-18T03:51:17;98569.81;;;3.09;nan
46023;BME280;31756;47.936;16.224;2023-03-18T03:53:43;98578.19;;;3.04;nan
46023;BME280;31756;47.936;16.224;2023-03-18T03:56:11;98584.91;;;2.99;nan
46023;BME280;31756;47.936;16.224;2023-03-18T03:58:37;98589.91;;;2.94;nan
46023;BME280;31756;47.936;16.224;2023-03-18T04:01:04;98598.75;;;3.36;nan
46023;BME280;31756;47.936;16.224;2023-03-18T04:03:31;98599.94;;;3.79;nan
46023;BME280;31756;47.936;16.224;2023-03-18T04:05:58;98588.22;;;3.93;nan
46023;BME280;31756;47.936;16.224;2023-03-18T04:08:27;98598.28;;;3.81;nan
46023;BME280;31756;47.936;16.224;2023-03-18T04:10:53;98560.91;;;3.54;nan
46023;BME280;31756;47.936;16.224;2023-03-18T04:13:19;98604.38;;;4.07;nan
46023;BME280;31756;47.936;16.224;2023-03-18T04:15:45;98583.91;;;3.80;nan
46023;BME280;31756;47.936;16.224;2023-03-18T04:18:16;98600.09;;;3.97;nan
46023;BME280;31756;47.936;16.224;2023-03-18T04:20:42;98602.56;;;3.91;nan
46023;BME280;31756;47.936;16.224;2023-03-18T04:23:17;98599.09;;;3.77;nan
46023;BME280;31756;47.936;16.224;2023-03-18T04:25:42;98599.06;;;3.74;nan
46023;BME280;31756;47.936;16.224;2023-03-18T04:28:09;98603.13;;;3.53;nan
46023;BME280;31756;47.936;16.224;2023-03-18T04:30:35;98568.44;;;3.46;nan
46023;BME280;31756;47.936;16.224;2023-03-18T04:33:06;98604.06;;;3.66;nan
46023;BME280;31756;47.936;16.224;2023-03-18T04:35:32;98590.25;;;3.29;nan
46023;BME280;31756;47.936;16.224;2023-03-18T04:37:58;98587.78;;;3.34;nan
46023;BME280;31756;47.936;16.224;2023-03-18T04:40:25;98589.66;;;3.59;nan
46023;BME280;31756;47.936;16.224;2023-03-18T04:42:51;98593.09;;;3.65;nan
46023;BME280;31756;47.936;16.224;2023-03-18T04:45:22;98608.13;;;3.43;nan
46023;BME280;31756;47.936;16.224;2023-03-18T04:47:50;98591.72;;;3.04;nan
46023;BME280;31756;47.936;16.224;2023-03-18T04:50:16;98621.31;;;3.11;nan
46023;BME280;31756;47.936;16.224;2023-03-18T04:52:42;98623.63;;;2.90;nan
46023;BME280;31756;47.936;16.224;2023-03-18T04:55:12;98625.06;;;2.68;nan
46023;BME280;31756;47.936;16.224;2023-03-18T04:57:41;98624.78;;;2.47;nan
46023;BME280;31756;47.936;16.224;2023-03-18T05:00:13;98619.69;;;2.44;nan
46023;BME280;31756;47.936;16.224;2023-03-18T05:02:41;98610.94;;;2.19;nan
46023;BME280;31756;47.936;16.224;2023-03-18T05:05:07;98625.22;;;2.16;nan
46023;BME280;31756;47.936;16.224;2023-03-18T05:07:38;98629.34;;;2.08;nan
46023;BME280;31756;47.936;16.224;2023-03-18T05:10:10;98620.69;;;1.94;nan
46023;BME280;31756;47.936;16.224;2023-03-18T05:12:37;98630.78;;;1.94;nan
46023;BME280;31756;47.936;16.224;2023-03-18T05:15:05;98637.50;;;1.90;nan
46023;BME280;31756;47.936;16.224;2023-03-18T05:17:31;98655.94;;;1.84;nan
46023;BME280;31756;47.936;16.224;2023-03-18T05:20:00;98654.09;;;1.76;nan
46023;BME280;31756;47.936;16.224;2023-03-18T05:22:27;98654.81;;;1.67;nan
46023;BME280;31756;47.936;16.224;2023-03-18T05:25:10;98663.13;;;1.62;nan
46023;BME280;31756;47.936;16.224;2023-03-18T05:27:39;98654.66;;;1.57;nan
46023;BME280;31756;47.936;16.224;2023-03-18T05:30:11;98643.41;;;1.41;nan
46023;BME280;31756;47.936;16.224;2023-03-18T05:32:44;98667.19;;;1.54;nan
46023;BME280;31756;47.936;16.224;2023-03-18T05:35:11;98653.66;;;1.50;nan
46023;BME280;31756;47.936;16.224;2023-03-18T05:37:48;98649.59;;;1.57;nan
46023;BME280;31756;47.936;16.224;2023-03-18T05:40:14;98669.22;;;1.74;nan
46023;BME280;31756;47.936;16.224;2023-03-18T05:42:49;98675.22;;;1.78;nan
46023;BME280;31756;47.936;16.224;2023-03-18T05:45:15;98676.03;;;1.78;nan
46023;BME280;31756;47.936;16.224;2023-03-18T05:47:49;98680.28;;;1.78;nan
46023;BME280;31756;47.936;16.224;2023-03-18T05:53:16;98681.34;;;1.94;nan
46023;BME280;31756;47.936;16.224;2023-03-18T05:55:45;98674.56;;;1.90;nan
46023;BME280;31756;47.936;16.224;2023-03-18T05:58:11;98684.03;;;2.04;nan
46023;BME280;31756;47.936;16.224;2023-03-18T06:00:39;98689.19;;;2.10;nan
46023;BME280;31756;47.936;16.224;2023-03-18T06:03:06;98677.38;;;2.09;nan
46023;BME280;31756;47.936;16.224;2023-03-18T06:05:32;98687.66;;;2.20;nan
46023;BME280;31756;47.936;16.224;2023-03-18T06:07:58;98699.25;;;2.06;nan
46023;BME280;31756;47.936;16.224;2023-03-18T06:10:25;98701.91;;;2.15;nan
46023;BME280;31756;47.936;16.224;2023-03-18T06:12:52;98683.09;;;1.98;nan
46023;BME280;31756;47.936;16.224;2023-03-18T06:15:20;98674.03;;;2.10;nan
46023;BME280;31756;47.936;16.224;2023-03-18T06:17:47;98674.06;;;2.13;nan
46023;BME280;31756;47.936;16.224;2023-03-18T06:20:14;98703.09;;;2.38;nan
46023;BME280;31756;47.936;16.224;2023-03-18T06:22:41;98704.91;;;2.45;nan
46023;BME280;31756;47.936;16.224;2023-03-18T06:25:08;98699.19;;;2.60;nan
46023;BME280;31756;47.936;16.224;2023-03-18T06:27:37;98707.78;;;2.71;nan
46023;BME280;31756;47.936;16.224;2023-03-18T06:30:04;98703.63;;;2.78;nan
46023;BME280;31756;47.936;16.224;2023-03-18T06:32:32;98690.34;;;2.92;nan
46023;BME280;31756;47.936;16.224;2023-03-18T06:34:59;98676.03;;;2.96;nan
46023;BME280;31756;47.936;16.224;2023-03-18T06:37:25;98713.50;;;3.26;nan
46023;BME280;31756;47.936;16.224;2023-03-18T06:39:53;98692.34;;;3.20;nan
46023;BME280;31756;47.936;16.224;2023-03-18T06:42:18;98696.75;;;3.38;nan
46023;BME280;31756;47.936;16.224;2023-03-18T06:45:02;98700.44;;;3.67;nan
46023;BME280;31756;47.936;16.224;2023-03-18T06:47:40;98716.69;;;3.91;nan
46023;BME280;31756;47.936;16.224;2023-03-18T06:50:08;98677.81;;;3.92;nan
46023;BME280;31756;47.936;16.224;2023-03-18T06:52:35;98704.22;;;4.18;nan
46023;BME280;31756;47.936;16.224;2023-03-18T06:55:08;98723.81;;;4.37;nan
46023;BME280;31756;47.936;16.224;2023-03-18T06:57:37;98709.28;;;4.17;nan
46023;BME280;31756;47.936;16.224;2023-03-18T07:00:04;98709.31;;;4.21;nan
46023;BME280;31756;47.936;16.224;2023-03-18T07:02:30;98722.97;;;4.32;nan
46023;BME280;31756;47.936;16.224;2023-03-18T07:04:57;98728.09;;;4.40;nan
46023;BME280;31756;47.936;16.224;2023-03-18T07:07:25;98734.94;;;4.54;nan
46023;BME280;31756;47.936;16.224;2023-03-18T07:09:52;98713.00;;;4.66;nan
46023;BME280;31756;47.936;16.224;2023-03-18T07:12:19;98709.78;;;4.97;nan
46023;BME280;31756;47.936;16.224;2023-03-18T07:14:45;98737.88;;;5.32;nan
46023;BME280;31756;47.936;16.224;2023-03-18T07:17:11;98719.28;;;5.48;nan
46023;BME280;31756;47.936;16.224;2023-03-18T07:19:39;98737.13;;;5.74;nan
46023;BME280;31756;47.936;16.224;2023-03-18T07:22:06;98739.69;;;5.71;nan
46023;BME280;31756;47.936;16.224;2023-03-18T07:24:32;98738.06;;;6.02;nan
46023;BME280;31756;47.936;16.224;2023-03-18T07:26:57;98735.53;;;6.18;nan
46023;BME280;31756;47.936;16.224;2023-03-18T07:29:23;98726.16;;;6.52;nan
46023;BME280;31756;47.936;16.224;2023-03-18T07:31:52;98728.66;;;6.72;nan
46023;BME280;31756;47.936;16.224;2023-03-18T07:34:18;98731.16;;;6.99;nan
46023;BME280;31756;47.936;16.224;2023-03-18T07:36:46;98741.28;;;7.16;nan
46023;BME280;31756;47.936;16.224;2023-03-18T07:39:11;98745.50;;;7.24;nan
46023;BME280;31756;47.936;16.224;2023-03-18T07:41:37;98744.56;;;7.39;nan
46023;BME280;31756;47.936;16.224;2023-03-18T07:44:04;98743.75;;;7.37;nan
46023;BME280;31756;47.936;16.224;2023-03-18T07:46:32;98742.78;;;7.56;nan
46023;BME280;31756;47.936;16.224;2023-03-18T07:48:58;98754.63;;;7.75;nan
46023;BME280;31756;47.936;16.224;2023-03-18T07:51:23;98729.06;;;7.77;nan
46023;BME280;31756;47.936;16.224;2023-03-18T07:53:49;98752.84;;;7.88;nan
46023;BME280;31756;47.936;16.224;2023-03-18T07:56:16;98760.44;;;7.97;nan
46023;BME280;31756;47.936;16.224;2023-03-18T07:58:42;98752.69;;;8.08;nan
46023;BME280;31756;47.936;16.224;2023-03-18T08:01:07;98762.88;;;8.12;nan
46023;BME280;31756;47.936;16.224;2023-03-18T08:03:34;98733.03;;;8.16;nan
46023;BME280;31756;47.936;16.224;2023-03-18T08:06:00;98753.41;;;8.31;nan
46023;BME280;31756;47.936;16.224;2023-03-18T08:08:27;98760.13;;;8.44;nan
46023;BME280;31756;47.936;16.224;2023-03-18T08:10:59;98738.88;;;8.38;nan
46023;BME280;31756;47.936;16.224;2023-03-18T08:13:26;98751.41;;;8.63;nan
46023;BME280;31756;47.936;16.224;2023-03-18T08:15:53;98754.81;;;8.65;nan
46023;BME280;31756;47.936;16.224;2023-03-18T08:18:20;98763.97;;;8.83;nan
46023;BME280;31756;47.936;16.224;2023-03-18T08:20:46;98739.34;;;8.78;nan
46023;BME280;31756;47.936;16.224;2023-03-18T08:23:13;98757.25;;;8.78;nan
46023;BME280;31756;47.936;16.224;2023-03-18T08:25:40;98764.03;;;8.82;nan
46023;BME280;31756;47.936;16.224;2023-03-18T08:28:05;98767.38;;;8.87;nan
46023;BME280;31756;47.936;16.224;2023-03-18T08:30:33;98746.97;;;8.82;nan
46023;BME280;31756;47.936;16.224;2023-03-18T08:32:59;98767.97;;;9.10;nan
46023;BME280;31756;47.936;16.224;2023-03-18T08:35:24;98741.69;;;8.99;nan
46023;BME280;31756;47.936;16.224;2023-03-18T08:37:51;98756.97;;;9.02;nan
46023;BME280;31756;47.936;16.224;2023-03-18T08:40:18;98763.50;;;9.27;nan
46023;BME280;31756;47.936;16.224;2023-03-18T08:42:44;98768.63;;;9.29;nan
46023;BME280;31756;47.936;16.224;2023-03-18T08:45:11;98769.38;;;9.37;nan
46023;BME280;31756;47.936;16.224;2023-03-18T08:47:38;98769.28;;;9.43;nan
46023;BME280;31756;47.936;16.224;2023-03-18T08:50:04;98753.03;;;9.47;nan
46023;BME280;31756;47.936;16.224;2023-03-18T08:52:30;98759.78;;;9.54;nan
46023;BME280;31756;47.936;16.224;2023-03-18T08:54:57;98774.81;;;9.78;nan
46023;BME280;31756;47.936;16.224;2023-03-18T08:57:23;98748.53;;;9.64;nan
46023;BME280;31756;47.936;16.224;2023-03-18T08:59:52;98752.66;;;9.76;nan
46023;BME280;31756;47.936;16.224;2023-03-18T09:02:18;98755.53;;;10.13;nan
46023;BME280;31756;47.936;16.224;2023-03-18T09:04:44;98750.88;;;10.39;nan
46023;BME280;31756;47.936;16.224;2023-03-18T09:07:11;98735.09;;;10.63;nan
46023;BME280;31756;47.936;16.224;2023-03-18T09:09:37;98746.59;;;10.87;nan
46023;BME280;31756;47.936;16.224;2023-03-18T09:12:04;98744.63;;;11.03;nan
46023;BME280;31756;47.936;16.224;2023-03-18T09:14:31;98741.22;;;11.00;nan
46023;BME280;31756;47.936;16.224;2023-03-18T09:16:58;98718.06;;;11.04;nan
46023;BME280;31756;47.936;16.224;2023-03-18T09:19:25;98733.63;;;11.37;nan
46023;BME280;31756;47.936;16.224;2023-03-18T09:21:51;98725.56;;;11.16;nan
46023;BME280;31756;47.936;16.224;2023-03-18T09:24:16;98732.50;;;11.52;nan
46023;BME280;31756;47.936;16.224;2023-03-18T09:26:42;98736.47;;;11.67;nan
46023;BME280;31756;47.936;16.224;2023-03-18T09:29:08;98734.03;;;11.59;nan
46023;BME280;31756;47.936;16.224;2023-03-18T09:31:34;98732.06;;;11.72;nan
46023;BME280;31756;47.936;16.224;2023-03-18T09:34:00;98737.25;;;11.70;nan
46023;BME280;31756;47.936;16.224;2023-03-18T09:36:25;98730.47;;;11.66;nan
46023;BME280;31756;47.936;16.224;2023-03-18T09:38:51;98728.31;;;11.88;nan
46023;BME280;31756;47.936;16.224;2023-03-18T09:41:22;98729.84;;;11.95;nan
46023;BME280;31756;47.936;16.224;2023-03-18T09:54:01;98720.19;;;12.40;nan
46023;BME280;31756;47.936;16.224;2023-03-18T09:56:29;98709.41;;;12.60;nan
46023;BME280;31756;47.936;16.224;2023-03-18T09:59:10;98718.69;;;12.65;nan
46023;BME280;31756;47.936;16.224;2023-03-18T10:01:40;98713.16;;;12.80;nan
46023;BME280;31756;47.936;16.224;2023-03-18T10:04:13;98718.66;;;12.67;nan
46023;BME280;31756;47.936;16.224;2023-03-18T10:06:42;98713.09;;;12.50;nan
46023;BME280;31756;47.936;16.224;2023-03-18T10:09:17;98709.88;;;12.42;nan
46023;BME280;31756;47.936;16.224;2023-03-18T10:11:46;98709.69;;;12.49;nan
46023;BME280;31756;47.936;16.224;2023-03-18T10:14:31;98711.19;;;12.56;nan
46023;BME280;31756;47.936;16.224;2023-03-18T10:17:11;98712.69;;;12.65;nan
46023;BME280;31756;47.936;16.224;2023-03-18T10:19:43;98701.28;;;12.43;nan
46023;BME280;31756;47.936;16.224;2023-03-18T10:22:27;98708.56;;;12.59;nan
46023;BME280;31756;47.936;16.224;2023-03-18T10:30:18;98711.78;;;12.67;nan
46023;BME280;31756;47.936;16.224;2023-03-18T10:32:57;98705.88;;;12.64;nan
46023;BME280;31756;47.936;16.224;2023-03-18T10:38:29;98701.94;;;12.81;nan
46023;BME280;31756;47.936;16.224;2023-03-18T10:40:57;98693.22;;;12.89;nan
46023;BME280;31756;47.936;16.224;2023-03-18T10:43:26;98705.81;;;12.98;nan
46023;BME280;31756;47.936;16.224;2023-03-18T10:46:04;98710.56;;;13.13;nan
46023;BME280;31756;47.936;16.224;2023-03-18T10:48:35;98708.69;;;13.19;nan
46023;BME280;31756;47.936;16.224;2023-03-18T10:53:41;98692.81;;;13.33;nan
46023;BME280;31756;47.936;16.224;2023-03-18T10:56:12;98700.28;;;13.42;nan
46023;BME280;31756;47.936;16.224;2023-03-18T10:58:39;98699.63;;;13.36;nan
46023;BME280;31756;47.936;16.224;2023-03-18T11:01:11;98691.09;;;13.34;nan
46023;BME280;31756;47.936;16.224;2023-03-18T11:03:43;98687.50;;;13.39;nan
46023;BME280;31756;47.936;16.224;2023-03-18T11:06:16;98689.97;;;13.42;nan
46023;BME280;31756;47.936;16.224;2023-03-18T11:08:47;98685.03;;;13.36;nan
46023;BME280;31756;47.936;16.224;2023-03-18T11:13:55;98684.25;;;13.62;nan
46023;BME280;31756;47.936;16.224;2023-03-18T11:16:34;98686.91;;;13.59;nan
46023;BME280;31756;47.936;16.224;2023-03-18T11:19:28;98677.13;;;13.70;nan
46023;BME280;31756;47.936;16.224;2023-03-18T11:22:11;98664.78;;;13.80;nan
46023;BME280;31756;47.936;16.224;2023-03-18T11:24:40;98672.94;;;13.94;nan
46023;BME280;31756;47.936;16.224;2023-03-18T11:29:41;98678.25;;;13.88;nan
46023;BME280;31756;47.936;16.224;2023-03-18T11:32:23;98646.66;;;13.83;nan
46023;BME280;31756;47.936;16.224;2023-03-18T11:35:06;98662.22;;;14.06;nan
46023;BME280;31756;47.936;16.224;2023-03-18T11:37:36;98661.16;;;14.13;nan
46023;BME280;31756;47.936;16.224;2023-03-18T11:40:25;98655.16;;;14.12;nan
46023;BME280;31756;47.936;16.224;2023-03-18T11:42:58;98646.75;;;14.06;nan
46023;BME280;31756;47.936;16.224;2023-03-18T11:47:58;98647.94;;;14.22;nan
46023;BME280;31756;47.936;16.224;2023-03-18T11:50:38;98643.44;;;14.02;nan
46023;BME280;31756;47.936;16.224;2023-03-18T11:53:26;98637.31;;;14.31;nan
46023;BME280;31756;47.936;16.224;2023-03-18T11:56:00;98634.56;;;14.37;nan
46023;BME280;31756;47.936;16.224;2023-03-18T11:59:19;98637.19;;;14.34;nan
46023;BME280;31756;47.936;16.224;2023-03-18T12:01:46;98611.78;;;14.24;nan
46023;BME280;31756;47.936;16.224;2023-03-18T12:04:22;98638.13;;;14.33;nan
46023;BME280;31756;47.936;16.224;2023-03-18T12:07:11;98627.16;;;14.27;nan
46023;BME280;31756;47.936;16.224;2023-03-18T12:26:06;98595.19;;;14.80;nan
46023;BME280;31756;47.936;16.224;2023-03-18T12:28:46;98593.72;;;14.96;nan
46023;BME280;31756;47.936;16.224;2023-03-18T12:31:24;98596.19;;;14.76;nan
46023;BME280;31756;47.936;16.224;2023-03-18T12:33:57;98590.88;;;14.81;nan
46023;BME280;31756;47.936;16.224;2023-03-18T12:41:57;98592.75;;;14.99;nan
46023;BME280;31756;47.936;16.224;2023-03-18T12:47:16;98580.25;;;14.88;nan
46023;BME280;31756;47.936;16.224;2023-03-18T12:49:56;98585.44;;;14.88;nan
46023;BME280;31756;47.936;16.224;2023-03-18T12:52:30;98590.00;;;15.03;nan
46023;BME280;31756;47.936;16.224;2023-03-18T12:55:01;98592.41;;;15.08;nan
46023;BME280;31756;47.936;16.224;2023-03-18T12:57:44;98592.03;;;15.19;nan
46023;BME280;31756;47.936;16.224;2023-03-18T13:00:34;98584.31;;;15.17;nan
46023;BME280;31756;47.936;16.224;2023-03-18T13:03:05;98582.72;;;15.15;nan
46023;BME280;31756;47.936;16.224;2023-03-18T13:10:40;98571.75;;;15.08;nan
46023;BME280;31756;47.936;16.224;2023-03-18T13:13:09;98581.97;;;15.11;nan
46023;BME280;31756;47.936;16.224;2023-03-18T13:15:51;98576.97;;;15.06;nan
46023;BME280;31756;47.936;16.224;2023-03-18T13:18:24;98583.19;;;15.24;nan
46023;BME280;31756;47.936;16.224;2023-03-18T13:20:53;98563.38;;;15.25;nan
46023;BME280;31756;47.936;16.224;2023-03-18T13:34:49;98575.25;;;15.29;nan
46023;BME280;31756;47.936;16.224;2023-03-18T13:42:39;98575.69;;;15.40;nan
46023;BME280;31756;47.936;16.224;2023-03-18T13:47:55;98576.16;;;15.28;nan
46023;BME280;31756;47.936;16.224;2023-03-18T13:50:38;98572.09;;;15.22;nan
46023;BME280;31756;47.936;16.224;2023-03-18T13:58:33;98545.22;;;15.26;nan
46023;BME280;31756;47.936;16.224;2023-03-18T14:06:22;98563.03;;;15.56;nan
46023;BME280;31756;47.936;16.224;2023-03-18T14:08:52;98559.94;;;15.68;nan
46023;BME280;31756;47.936;16.224;2023-03-18T14:13:56;98531.78;;;15.40;nan
46023;BME280;31756;47.936;16.224;2023-03-18T14:16:26;98551.91;;;15.53;nan
46023;BME280;31756;47.936;16.224;2023-03-18T14:21:45;98546.44;;;15.61;nan
46023;BME280;31756;47.936;16.224;2023-03-18T14:29:44;98540.41;;;15.39;nan
46023;BME280;31756;47.936;16.224;2023-03-18T14:35:03;98527.91;;;15.28;nan
46023;BME280;31756;47.936;16.224;2023-03-18T14:38:00;98531.25;;;15.32;nan
46023;BME280;31756;47.936;16.224;2023-03-18T14:40:38;98535.38;;;15.36;nan
46023;BME280;31756;47.936;16.224;2023-03-18T14:43:14;98532.00;;;15.34;nan
46023;BME280;31756;47.936;16.224;2023-03-18T14:45:43;98527.72;;;15.33;nan
46023;BME280;31756;47.936;16.224;2023-03-18T14:48:26;98531.50;;;15.46;nan
46023;BME280;31756;47.936;16.224;2023-03-18T14:50:55;98520.84;;;15.33;nan
46023;BME280;31756;47.936;16.224;2023-03-18T14:53:46;98518.50;;;15.27;nan
46023;BME280;31756;47.936;16.224;2023-03-18T14:56:23;98532.72;;;15.37;nan
46023;BME280;31756;47.936;16.224;2023-03-18T14:58:51;98513.88;;;15.35;nan
46023;BME280;31756;47.936;16.224;2023-03-18T15:01:43;98530.63;;;15.25;nan
46023;BME280;31756;47.936;16.224;2023-03-18T15:04:15;98529.69;;;15.06;nan
46023;BME280;31756;47.936;16.224;2023-03-18T15:06:42;98507.34;;;14.82;nan
46023;BME280;31756;47.936;16.224;2023-03-18T15:09:14;98529.91;;;14.77;nan
46023;BME280;31756;47.936;16.224;2023-03-18T15:11:43;98522.72;;;14.63;nan
46023;BME280;31756;47.936;16.224;2023-03-18T15:14:30;98511.91;;;14.29;nan
46023;BME280;31756;47.936;16.224;2023-03-18T15:17:02;98517.94;;;14.28;nan
46023;BME280;31756;47.936;16.224;2023-03-18T15:19:29;98512.78;;;14.04;nan
46023;BME280;31756;47.936;16.224;2023-03-18T15:22:03;98529.22;;;14.00;nan
46023;BME280;31756;47.936;16.224;2023-03-18T15:24:30;98524.31;;;13.93;nan
46023;BME280;31756;47.936;16.224;2023-03-18T15:27:04;98532.22;;;13.88;nan